sensor_id;sensor_type;location;lat;lon;timestamp;temperature;humidity
15543;DHT22;7873;52.230;12.856;2023-03-01T00:01:26;26.10;30.70
15543;DHT22;7873;52.230;12.856;2023-03-01T00:03:54;26.10;30.70
15543;DHT22;7873;52.230;12.856;2023-03-01T00:06:21;26.00;30.60
15543;DHT22;7873;52.230;12.856;2023-03-01T00:08:48;26.00;30.80
15543;DHT22;7873;52.230;12.856;2023-03-01T00:11:15;26.00;30.80
15543;DHT22;7873;52.230;12.856;2023-03-01T00:13:43;25.90;30.90
15543;DHT22;7873;52.230;12.856;2023-03-01T00:16:14;25.90;31.70
15543;DHT22;7873;52.230;12.856;2023-03-01T00:18:42;25.80;30.90
15543;DHT22;7873;52.230;12.856;2023-03-01T00:21:09;25.80;31.00
15543;DHT22;7873;52.230;12.856;2023-03-01T00:23:37;25.70;31.10
15543;DHT22;7873;52.230;12.856;2023-03-01T00:26:05;25.70;31.20
15543;DHT22;7873;52.230;12.856;2023-03-01T00:28:33;25.60;31.20
15543;DHT22;7873;52.230;12.856;2023-03-01T00:31:02;25.60;31.40
15543;DHT22;7873;52.230;12.856;2023-03-01T00:33:31;25.50;31.50
15543;DHT22;7873;52.230;12.856;2023-03-01T00:35:58;25.50;31.60
15543;DHT22;7873;52.230;12.856;2023-03-01T00:38:24;25.40;31.80
15543;DHT22;7873;52.230;12.856;2023-03-01T00:40:51;25.30;31.80
15543;DHT22;7873;52.230;12.856;2023-03-01T00:43:18;25.30;31.80
15543;DHT22;7873;52.230;12.856;2023-03-01T00:45:45;25.20;31.90
15543;DHT22;7873;52.230;12.856;2023-03-01T00:48:11;25.20;31.90
15543;DHT22;7873;52.230;12.856;2023-03-01T00:50:39;25.20;32.10
15543;DHT22;7873;52.230;12.856;2023-03-01T00:53:06;25.10;32.10
15543;DHT22;7873;52.230;12.856;2023-03-01T00:55:33;25.10;32.20
15543;DHT22;7873;52.230;12.856;2023-03-01T00:57:59;25.10;32.20
15543;DHT22;7873;52.230;12.856;2023-03-01T01:00:26;25.10;32.20
15543;DHT22;7873;52.230;12.856;2023-03-01T01:02:54;25.00;32.20
15543;DHT22;7873;52.230;12.856;2023-03-01T01:05:21;25.00;32.30
15543;DHT22;7873;52.230;12.856;2023-03-01T01:07:49;25.00;32.40
15543;DHT22;7873;52.230;12.856;2023-03-01T01:10:15;24.90;32.40
15543;DHT22;7873;52.230;12.856;2023-03-01T01:12:43;24.90;32.50
15543;DHT22;7873;52.230;12.856;2023-03-01T01:15:11;24.90;32.60
15543;DHT22;7873;52.230;12.856;2023-03-01T01:17:39;24.80;32.60
15543;DHT22;7873;52.230;12.856;2023-03-01T01:20:07;24.80;32.50
15543;DHT22;7873;52.230;12.856;2023-03-01T01:22:34;24.80;32.60
15543;DHT22;7873;52.230;12.856;2023-03-01T01:25:03;24.80;32.60
15543;DHT22;7873;52.230;12.856;2023-03-01T01:27:30;24.80;32.60
15543;DHT22;7873;52.230;12.856;2023-03-01T01:29:56;24.80;32.70
15543;DHT22;7873;52.230;12.856;2023-03-01T01:32:23;24.70;32.80
15543;DHT22;7873;52.230;12.856;2023-03-01T01:34:50;24.60;32.90
15543;DHT22;7873;52.230;12.856;2023-03-01T01:37:16;24.60;32.90
15543;DHT22;7873;52.230;12.856;2023-03-01T01:39:43;24.60;32.90
15543;DHT22;7873;52.230;12.856;2023-03-01T01:42:12;24.60;32.90
15543;DHT22;7873;52.230;12.856;2023-03-01T01:44:42;24.60;32.90
15543;DHT22;7873;52.230;12.856;2023-03-01T01:47:12;24.50;33.00
15543;DHT22;7873;52.230;12.856;2023-03-01T01:49:42;24.50;33.10
15543;DHT22;7873;52.230;12.856;2023-03-01T01:52:13;24.40;33.20
15543;DHT22;7873;52.230;12.856;2023-03-01T01:54:44;24.40;33.30
15543;DHT22;7873;52.230;12.856;2023-03-01T01:57:18;24.30;33.30
15543;DHT22;7873;52.230;12.856;2023-03-01T01:59:48;24.30;33.50
15543;DHT22;7873;52.230;12.856;2023-03-01T02:02:19;24.20;33.60
15543;DHT22;7873;52.230;12.856;2023-03-01T02:04:46;24.00;33.70
15543;DHT22;7873;52.230;12.856;2023-03-01T02:07:15;24.00;33.90
15543;DHT22;7873;52.230;12.856;2023-03-01T02:09:45;24.00;33.90
15543;DHT22;7873;52.230;12.856;2023-03-01T02:12:13;24.00;33.90
15543;DHT22;7873;52.230;12.856;2023-03-01T02:14:43;23.90;34.20
15543;DHT22;7873;52.230;12.856;2023-03-01T02:17:10;23.90;34.00
15543;DHT22;7873;52.230;12.856;2023-03-01T02:19:41;23.90;34.10
15543;DHT22;7873;52.230;12.856;2023-03-01T02:22:19;23.80;34.10
15543;DHT22;7873;52.230;12.856;2023-03-01T02:24:52;23.80;34.30
15543;DHT22;7873;52.230;12.856;2023-03-01T02:27:33;23.80;34.40
15543;DHT22;7873;52.230;12.856;2023-03-01T02:30:06;23.70;34.40
15543;DHT22;7873;52.230;12.856;2023-03-01T02:32:38;23.70;34.50
15543;DHT22;7873;52.230;12.856;2023-03-01T02:35:08;23.70;34.40
15543;DHT22;7873;52.230;12.856;2023-03-01T02:37:37;23.60;34.40
15543;DHT22;7873;52.230;12.856;2023-03-01T02:40:06;23.60;34.40
15543;DHT22;7873;52.230;12.856;2023-03-01T02:42:40;23.60;34.60
15543;DHT22;7873;52.230;12.856;2023-03-01T02:45:14;23.60;34.50
15543;DHT22;7873;52.230;12.856;2023-03-01T02:47:40;23.50;34.50
15543;DHT22;7873;52.230;12.856;2023-03-01T02:50:16;23.60;34.20
15543;DHT22;7873;52.230;12.856;2023-03-01T02:52:53;23.70;34.10
15543;DHT22;7873;52.230;12.856;2023-03-01T02:55:27;23.60;34.30
15543;DHT22;7873;52.230;12.856;2023-03-01T02:57:54;23.50;34.60
15543;DHT22;7873;52.230;12.856;2023-03-01T03:00:24;23.40;34.70
15543;DHT22;7873;52.230;12.856;2023-03-01T03:02:54;23.40;34.70
15543;DHT22;7873;52.230;12.856;2023-03-01T03:05:22;23.40;34.70
15543;DHT22;7873;52.230;12.856;2023-03-01T03:07:53;23.30;35.60
15543;DHT22;7873;52.230;12.856;2023-03-01T03:10:21;23.30;34.90
15543;DHT22;7873;52.230;12.856;2023-03-01T03:12:50;23.30;35.00
15543;DHT22;7873;52.230;12.856;2023-03-01T03:15:18;23.20;35.10
15543;DHT22;7873;52.230;12.856;2023-03-01T03:17:47;23.20;35.20
15543;DHT22;7873;52.230;12.856;2023-03-01T03:20:16;23.10;35.20
15543;DHT22;7873;52.230;12.856;2023-03-01T03:22:45;23.20;35.10
15543;DHT22;7873;52.230;12.856;2023-03-01T03:25:12;23.30;35.00
15543;DHT22;7873;52.230;12.856;2023-03-01T03:27:39;23.40;34.80
15543;DHT22;7873;52.230;12.856;2023-03-01T03:30:08;23.40;34.80
15543;DHT22;7873;52.230;12.856;2023-03-01T03:32:38;23.50;34.60
15543;DHT22;7873;52.230;12.856;2023-03-01T03:35:07;23.50;34.50
15543;DHT22;7873;52.230;12.856;2023-03-01T03:37:36;23.50;34.50
15543;DHT22;7873;52.230;12.856;2023-03-01T03:40:20;23.50;34.50
15543;DHT22;7873;52.230;12.856;2023-03-01T03:42:47;23.50;34.40
15543;DHT22;7873;52.230;12.856;2023-03-01T03:45:14;23.50;34.40
15543;DHT22;7873;52.230;12.856;2023-03-01T03:47:41;23.40;34.60
15543;DHT22;7873;52.230;12.856;2023-03-01T03:50:10;23.40;34.70
15543;DHT22;7873;52.230;12.856;2023-03-01T03:52:38;23.30;34.70
15543;DHT22;7873;52.230;12.856;2023-03-01T03:55:05;23.20;34.80
15543;DHT22;7873;52.230;12.856;2023-03-01T03:57:36;23.20;34.80
15543;DHT22;7873;52.230;12.856;2023-03-01T04:00:04;23.20;34.70
15543;DHT22;7873;52.230;12.856;2023-03-01T04:02:38;23.30;34.70
15543;DHT22;7873;52.230;12.856;2023-03-01T04:05:05;23.30;34.70
15543;DHT22;7873;52.230;12.856;2023-03-01T04:07:34;23.20;34.70
15543;DHT22;7873;52.230;12.856;2023-03-01T04:10:02;23.20;34.70
15543;DHT22;7873;52.230;12.856;2023-03-01T04:12:29;23.20;34.70
15543;DHT22;7873;52.230;12.856;2023-03-01T04:14:56;23.20;34.80
15543;DHT22;7873;52.230;12.856;2023-03-01T04:17:23;23.20;35.20
15543;DHT22;7873;52.230;12.856;2023-03-01T04:19:49;23.20;35.20
15543;DHT22;7873;52.230;12.856;2023-03-01T04:22:16;23.00;35.10
15543;DHT22;7873;52.230;12.856;2023-03-01T04:24:44;23.00;35.20
15543;DHT22;7873;52.230;12.856;2023-03-01T04:27:11;23.10;35.40
15543;DHT22;7873;52.230;12.856;2023-03-01T04:29:38;23.10;35.30
15543;DHT22;7873;52.230;12.856;2023-03-01T04:32:04;23.00;35.20
15543;DHT22;7873;52.230;12.856;2023-03-01T04:34:31;22.90;35.70
15543;DHT22;7873;52.230;12.856;2023-03-01T04:36:58;22.80;35.70
15543;DHT22;7873;52.230;12.856;2023-03-01T04:39:25;22.80;35.60
15543;DHT22;7873;52.230;12.856;2023-03-01T04:41:52;22.80;35.60
15543;DHT22;7873;52.230;12.856;2023-03-01T04:44:19;22.90;35.60
15543;DHT22;7873;52.230;12.856;2023-03-01T04:46:48;23.00;35.30
15543;DHT22;7873;52.230;12.856;2023-03-01T04:49:15;23.00;35.40
15543;DHT22;7873;52.230;12.856;2023-03-01T04:51:42;23.00;35.20
15543;DHT22;7873;52.230;12.856;2023-03-01T04:54:09;23.10;35.70
15543;DHT22;7873;52.230;12.856;2023-03-01T04:56:35;22.80;31.50
15543;DHT22;7873;52.230;12.856;2023-03-01T04:59:03;22.60;32.10
15543;DHT22;7873;52.230;12.856;2023-03-01T05:01:30;22.70;32.80
15543;DHT22;7873;52.230;12.856;2023-03-01T05:03:57;22.70;33.00
15543;DHT22;7873;52.230;12.856;2023-03-01T05:06:28;22.70;33.40
15543;DHT22;7873;52.230;12.856;2023-03-01T05:08:55;22.80;34.10
15543;DHT22;7873;52.230;12.856;2023-03-01T05:11:21;22.90;33.90
15543;DHT22;7873;52.230;12.856;2023-03-01T05:13:48;22.90;34.30
15543;DHT22;7873;52.230;12.856;2023-03-01T05:16:21;22.90;34.20
15543;DHT22;7873;52.230;12.856;2023-03-01T05:18:48;22.90;33.60
15543;DHT22;7873;52.230;12.856;2023-03-01T05:21:16;22.80;33.50
15543;DHT22;7873;52.230;12.856;2023-03-01T05:23:43;22.80;33.60
15543;DHT22;7873;52.230;12.856;2023-03-01T05:26:09;22.70;29.80
15543;DHT22;7873;52.230;12.856;2023-03-01T05:28:37;22.80;29.60
15543;DHT22;7873;52.230;12.856;2023-03-01T05:31:05;22.40;27.30
15543;DHT22;7873;52.230;12.856;2023-03-01T05:33:36;21.30;25.10
15543;DHT22;7873;52.230;12.856;2023-03-01T05:36:04;20.70;27.50
15543;DHT22;7873;52.230;12.856;2023-03-01T05:38:31;21.00;29.10
15543;DHT22;7873;52.230;12.856;2023-03-01T05:40:58;21.20;29.50
15543;DHT22;7873;52.230;12.856;2023-03-01T05:43:25;21.30;29.70
15543;DHT22;7873;52.230;12.856;2023-03-01T05:45:51;21.20;30.00
15543;DHT22;7873;52.230;12.856;2023-03-01T05:48:18;21.30;30.40
15543;DHT22;7873;52.230;12.856;2023-03-01T05:50:47;21.40;30.80
15543;DHT22;7873;52.230;12.856;2023-03-01T05:53:15;21.30;31.10
15543;DHT22;7873;52.230;12.856;2023-03-01T05:55:43;21.30;31.40
15543;DHT22;7873;52.230;12.856;2023-03-01T05:58:12;21.30;32.00
15543;DHT22;7873;52.230;12.856;2023-03-01T06:00:40;21.50;32.50
15543;DHT22;7873;52.230;12.856;2023-03-01T06:03:09;21.50;32.50
15543;DHT22;7873;52.230;12.856;2023-03-01T06:05:37;21.40;33.30
15543;DHT22;7873;52.230;12.856;2023-03-01T06:08:06;21.40;33.40
15543;DHT22;7873;52.230;12.856;2023-03-01T06:10:33;21.30;31.90
15543;DHT22;7873;52.230;12.856;2023-03-01T06:12:59;21.30;32.00
15543;DHT22;7873;52.230;12.856;2023-03-01T06:15:26;21.40;32.20
15543;DHT22;7873;52.230;12.856;2023-03-01T06:17:54;21.50;32.40
15543;DHT22;7873;52.230;12.856;2023-03-01T06:20:23;21.60;32.60
15543;DHT22;7873;52.230;12.856;2023-03-01T06:22:51;21.70;32.60
15543;DHT22;7873;52.230;12.856;2023-03-01T06:25:20;21.80;32.50
15543;DHT22;7873;52.230;12.856;2023-03-01T06:27:50;21.90;32.30
15543;DHT22;7873;52.230;12.856;2023-03-01T06:30:18;22.10;32.00
15543;DHT22;7873;52.230;12.856;2023-03-01T06:32:46;22.20;31.90
15543;DHT22;7873;52.230;12.856;2023-03-01T06:35:14;22.20;31.90
15543;DHT22;7873;52.230;12.856;2023-03-01T06:37:42;22.30;32.00
15543;DHT22;7873;52.230;12.856;2023-03-01T06:40:10;22.40;31.70
15543;DHT22;7873;52.230;12.856;2023-03-01T06:42:40;22.40;31.80
15543;DHT22;7873;52.230;12.856;2023-03-01T06:45:08;22.50;31.70
15543;DHT22;7873;52.230;12.856;2023-03-01T06:47:36;22.50;31.70
15543;DHT22;7873;52.230;12.856;2023-03-01T06:50:02;22.60;31.50
15543;DHT22;7873;52.230;12.856;2023-03-01T06:52:30;22.60;31.40
15543;DHT22;7873;52.230;12.856;2023-03-01T06:54:56;22.70;31.20
15543;DHT22;7873;52.230;12.856;2023-03-01T06:57:23;22.70;31.20
15543;DHT22;7873;52.230;12.856;2023-03-01T06:59:51;22.80;31.10
15543;DHT22;7873;52.230;12.856;2023-03-01T07:02:18;22.90;30.90
15543;DHT22;7873;52.230;12.856;2023-03-01T07:04:45;22.80;31.10
15543;DHT22;7873;52.230;12.856;2023-03-01T07:07:12;22.90;31.10
15543;DHT22;7873;52.230;12.856;2023-03-01T07:09:38;22.90;30.90
15543;DHT22;7873;52.230;12.856;2023-03-01T07:12:05;23.00;30.90
15543;DHT22;7873;52.230;12.856;2023-03-01T07:14:33;23.00;30.70
15543;DHT22;7873;52.230;12.856;2023-03-01T07:17:01;23.00;30.80
15543;DHT22;7873;52.230;12.856;2023-03-01T07:19:27;23.00;31.00
15543;DHT22;7873;52.230;12.856;2023-03-01T07:21:54;23.00;30.80
15543;DHT22;7873;52.230;12.856;2023-03-01T07:24:22;23.00;30.70
15543;DHT22;7873;52.230;12.856;2023-03-01T07:26:49;23.10;30.70
15543;DHT22;7873;52.230;12.856;2023-03-01T07:29:16;23.10;30.70
15543;DHT22;7873;52.230;12.856;2023-03-01T07:31:43;23.10;30.70
15543;DHT22;7873;52.230;12.856;2023-03-01T07:34:12;23.10;30.60
15543;DHT22;7873;52.230;12.856;2023-03-01T07:36:38;23.10;30.70
15543;DHT22;7873;52.230;12.856;2023-03-01T07:39:08;23.10;30.70
15543;DHT22;7873;52.230;12.856;2023-03-01T07:41:35;23.20;30.70
15543;DHT22;7873;52.230;12.856;2023-03-01T07:44:02;23.20;30.70
15543;DHT22;7873;52.230;12.856;2023-03-01T07:46:29;23.10;30.70
15543;DHT22;7873;52.230;12.856;2023-03-01T07:48:56;23.20;30.70
15543;DHT22;7873;52.230;12.856;2023-03-01T07:51:24;23.20;30.70
15543;DHT22;7873;52.230;12.856;2023-03-01T07:53:51;23.20;30.70
15543;DHT22;7873;52.230;12.856;2023-03-01T07:56:18;23.20;30.90
15543;DHT22;7873;52.230;12.856;2023-03-01T07:58:45;23.20;30.90
15543;DHT22;7873;52.230;12.856;2023-03-01T08:01:13;23.20;30.80
15543;DHT22;7873;52.230;12.856;2023-03-01T08:03:40;23.20;30.90
15543;DHT22;7873;52.230;12.856;2023-03-01T08:06:08;23.20;30.90
15543;DHT22;7873;52.230;12.856;2023-03-01T08:08:37;23.20;30.90
15543;DHT22;7873;52.230;12.856;2023-03-01T08:11:05;23.20;31.00
15543;DHT22;7873;52.230;12.856;2023-03-01T08:13:33;23.20;31.10
15543;DHT22;7873;52.230;12.856;2023-03-01T08:16:00;23.10;31.10
15543;DHT22;7873;52.230;12.856;2023-03-01T08:18:28;23.20;31.20
15543;DHT22;7873;52.230;12.856;2023-03-01T08:20:55;23.10;31.20
15543;DHT22;7873;52.230;12.856;2023-03-01T08:23:21;23.10;31.40
15543;DHT22;7873;52.230;12.856;2023-03-01T08:25:49;23.10;31.40
15543;DHT22;7873;52.230;12.856;2023-03-01T08:28:16;23.00;31.40
15543;DHT22;7873;52.230;12.856;2023-03-01T08:30:43;23.10;31.50
15543;DHT22;7873;52.230;12.856;2023-03-01T08:33:09;23.00;31.70
15543;DHT22;7873;52.230;12.856;2023-03-01T08:35:36;22.90;31.80
15543;DHT22;7873;52.230;12.856;2023-03-01T08:38:03;22.90;31.90
15543;DHT22;7873;52.230;12.856;2023-03-01T08:40:29;22.90;31.90
15543;DHT22;7873;52.230;12.856;2023-03-01T08:43:00;22.80;32.10
15543;DHT22;7873;52.230;12.856;2023-03-01T08:45:26;22.70;32.30
15543;DHT22;7873;52.230;12.856;2023-03-01T08:47:53;22.70;33.00
15543;DHT22;7873;52.230;12.856;2023-03-01T08:50:20;22.70;32.30
15543;DHT22;7873;52.230;12.856;2023-03-01T08:52:47;22.70;32.30
15543;DHT22;7873;52.230;12.856;2023-03-01T08:55:26;22.70;32.50
15543;DHT22;7873;52.230;12.856;2023-03-01T08:57:53;22.70;32.40
15543;DHT22;7873;52.230;12.856;2023-03-01T09:00:21;22.70;32.40
15543;DHT22;7873;52.230;12.856;2023-03-01T09:02:48;22.70;32.60
15543;DHT22;7873;52.230;12.856;2023-03-01T09:05:15;22.70;32.50
15543;DHT22;7873;52.230;12.856;2023-03-01T09:07:41;22.70;32.50
15543;DHT22;7873;52.230;12.856;2023-03-01T09:10:09;22.70;32.40
15543;DHT22;7873;52.230;12.856;2023-03-01T09:12:36;22.70;32.40
15543;DHT22;7873;52.230;12.856;2023-03-01T09:15:03;22.70;32.50
15543;DHT22;7873;52.230;12.856;2023-03-01T09:17:31;22.70;32.50
15543;DHT22;7873;52.230;12.856;2023-03-01T09:19:58;22.70;32.50
15543;DHT22;7873;52.230;12.856;2023-03-01T09:22:25;22.60;32.60
15543;DHT22;7873;52.230;12.856;2023-03-01T09:24:52;22.60;32.60
15543;DHT22;7873;52.230;12.856;2023-03-01T09:27:19;22.70;32.60
15543;DHT22;7873;52.230;12.856;2023-03-01T09:29:45;22.70;32.40
15543;DHT22;7873;52.230;12.856;2023-03-01T09:32:12;22.70;32.50
15543;DHT22;7873;52.230;12.856;2023-03-01T09:34:40;22.70;32.60
15543;DHT22;7873;52.230;12.856;2023-03-01T09:37:21;22.70;33.30
15543;DHT22;7873;52.230;12.856;2023-03-01T09:39:47;22.70;32.60
15543;DHT22;7873;52.230;12.856;2023-03-01T09:42:14;22.70;32.60
15543;DHT22;7873;52.230;12.856;2023-03-01T09:44:43;22.70;32.50
15543;DHT22;7873;52.230;12.856;2023-03-01T09:47:16;22.70;32.60
15543;DHT22;7873;52.230;12.856;2023-03-01T09:49:46;22.70;32.80
15543;DHT22;7873;52.230;12.856;2023-03-01T09:52:21;22.70;32.70
15543;DHT22;7873;52.230;12.856;2023-03-01T09:54:54;22.80;32.50
15543;DHT22;7873;52.230;12.856;2023-03-01T09:57:25;22.80;32.60
15543;DHT22;7873;52.230;12.856;2023-03-01T09:59:58;22.80;32.60
15543;DHT22;7873;52.230;12.856;2023-03-01T10:02:31;22.80;32.50
15543;DHT22;7873;52.230;12.856;2023-03-01T10:05:09;22.80;32.30
15543;DHT22;7873;52.230;12.856;2023-03-01T10:07:43;22.90;32.40
15543;DHT22;7873;52.230;12.856;2023-03-01T10:10:22;22.80;32.50
15543;DHT22;7873;52.230;12.856;2023-03-01T10:12:54;22.90;32.40
15543;DHT22;7873;52.230;12.856;2023-03-01T10:15:25;22.90;32.40
15543;DHT22;7873;52.230;12.856;2023-03-01T10:18:01;22.80;33.20
15543;DHT22;7873;52.230;12.856;2023-03-01T10:20:36;22.80;32.50
15543;DHT22;7873;52.230;12.856;2023-03-01T10:23:10;22.80;32.60
15543;DHT22;7873;52.230;12.856;2023-03-01T10:25:41;22.80;32.60
15543;DHT22;7873;52.230;12.856;2023-03-01T10:28:16;22.80;32.60
15543;DHT22;7873;52.230;12.856;2023-03-01T10:30:44;22.70;32.80
15543;DHT22;7873;52.230;12.856;2023-03-01T10:33:14;22.70;32.80
15543;DHT22;7873;52.230;12.856;2023-03-01T10:35:45;22.70;32.80
15543;DHT22;7873;52.230;12.856;2023-03-01T10:38:12;22.80;32.80
15543;DHT22;7873;52.230;12.856;2023-03-01T10:40:49;22.80;32.70
15543;DHT22;7873;52.230;12.856;2023-03-01T10:43:18;22.80;32.60
15543;DHT22;7873;52.230;12.856;2023-03-01T10:45:45;22.80;32.80
15543;DHT22;7873;52.230;12.856;2023-03-01T10:48:13;22.80;32.70
15543;DHT22;7873;52.230;12.856;2023-03-01T10:50:41;22.80;32.70
15543;DHT22;7873;52.230;12.856;2023-03-01T10:53:20;22.80;32.60
15543;DHT22;7873;52.230;12.856;2023-03-01T10:55:58;22.80;32.60
15543;DHT22;7873;52.230;12.856;2023-03-01T10:58:26;22.90;32.60
15543;DHT22;7873;52.230;12.856;2023-03-01T11:00:55;22.80;32.80
15543;DHT22;7873;52.230;12.856;2023-03-01T11:03:24;22.70;32.90
15543;DHT22;7873;52.230;12.856;2023-03-01T11:05:57;22.80;32.80
15543;DHT22;7873;52.230;12.856;2023-03-01T11:08:31;22.80;32.60
15543;DHT22;7873;52.230;12.856;2023-03-01T11:11:04;22.90;32.50
15543;DHT22;7873;52.230;12.856;2023-03-01T11:13:33;22.80;32.80
15543;DHT22;7873;52.230;12.856;2023-03-01T11:16:00;22.70;32.90
15543;DHT22;7873;52.230;12.856;2023-03-01T11:18:29;22.70;33.10
15543;DHT22;7873;52.230;12.856;2023-03-01T11:20:58;22.70;33.00
15543;DHT22;7873;52.230;12.856;2023-03-01T11:23:27;22.70;33.20
15543;DHT22;7873;52.230;12.856;2023-03-01T11:25:57;22.60;33.30
15543;DHT22;7873;52.230;12.856;2023-03-01T11:28:27;22.60;33.40
15543;DHT22;7873;52.230;12.856;2023-03-01T11:30:56;22.60;33.50
15543;DHT22;7873;52.230;12.856;2023-03-01T11:33:33;22.50;33.60
15543;DHT22;7873;52.230;12.856;2023-03-01T11:36:05;22.50;33.70
15543;DHT22;7873;52.230;12.856;2023-03-01T11:38:35;22.50;33.80
15543;DHT22;7873;52.230;12.856;2023-03-01T11:41:06;22.50;33.70
15543;DHT22;7873;52.230;12.856;2023-03-01T11:43:42;22.60;33.60
15543;DHT22;7873;52.230;12.856;2023-03-01T11:52:42;22.60;33.70
15543;DHT22;7873;52.230;12.856;2023-03-01T11:55:24;22.60;33.70
15543;DHT22;7873;52.230;12.856;2023-03-01T11:58:02;22.60;33.60
15543;DHT22;7873;52.230;12.856;2023-03-01T12:00:44;22.60;33.50
15543;DHT22;7873;52.230;12.856;2023-03-01T12:03:23;22.60;33.60
15543;DHT22;7873;52.230;12.856;2023-03-01T12:05:59;22.60;33.50
15543;DHT22;7873;52.230;12.856;2023-03-01T12:08:35;22.70;33.50
15543;DHT22;7873;52.230;12.856;2023-03-01T12:11:11;22.70;33.50
15543;DHT22;7873;52.230;12.856;2023-03-01T12:16:55;22.60;33.50
15543;DHT22;7873;52.230;12.856;2023-03-01T12:19:34;22.60;33.70
15543;DHT22;7873;52.230;12.856;2023-03-01T12:22:21;22.60;33.80
15543;DHT22;7873;52.230;12.856;2023-03-01T12:25:05;22.60;33.80
15543;DHT22;7873;52.230;12.856;2023-03-01T12:27:46;22.50;33.90
15543;DHT22;7873;52.230;12.856;2023-03-01T12:30:29;22.60;33.80
15543;DHT22;7873;52.230;12.856;2023-03-01T12:33:10;22.60;33.80
15543;DHT22;7873;52.230;12.856;2023-03-01T12:35:51;22.60;33.70
15543;DHT22;7873;52.230;12.856;2023-03-01T12:38:28;22.70;33.60
15543;DHT22;7873;52.230;12.856;2023-03-01T12:44:05;22.70;33.50
15543;DHT22;7873;52.230;12.856;2023-03-01T12:46:46;22.70;33.60
15543;DHT22;7873;52.230;12.856;2023-03-01T12:49:24;22.70;33.70
15543;DHT22;7873;52.230;12.856;2023-03-01T12:51:56;22.60;33.80
15543;DHT22;7873;52.230;12.856;2023-03-01T12:54:26;22.70;33.80
15543;DHT22;7873;52.230;12.856;2023-03-01T12:56:54;22.70;33.80
15543;DHT22;7873;52.230;12.856;2023-03-01T12:59:23;22.60;33.90
15543;DHT22;7873;52.230;12.856;2023-03-01T13:02:00;22.60;34.10
15543;DHT22;7873;52.230;12.856;2023-03-01T13:04:46;22.60;34.90
15543;DHT22;7873;52.230;12.856;2023-03-01T13:07:23;22.60;34.20
15543;DHT22;7873;52.230;12.856;2023-03-01T13:09:55;22.60;34.20
15543;DHT22;7873;52.230;12.856;2023-03-01T13:12:42;22.50;34.30
15543;DHT22;7873;52.230;12.856;2023-03-01T13:15:27;22.50;34.20
15543;DHT22;7873;52.230;12.856;2023-03-01T13:17:58;22.60;34.10
15543;DHT22;7873;52.230;12.856;2023-03-01T13:20:27;22.70;33.90
15543;DHT22;7873;52.230;12.856;2023-03-01T13:23:05;22.70;34.80
15543;DHT22;7873;52.230;12.856;2023-03-01T13:25:35;22.60;34.20
15543;DHT22;7873;52.230;12.856;2023-03-01T13:28:40;22.60;34.40
15543;DHT22;7873;52.230;12.856;2023-03-01T13:34:43;22.60;34.50
15543;DHT22;7873;52.230;12.856;2023-03-01T13:37:24;22.50;34.50
15543;DHT22;7873;52.230;12.856;2023-03-01T13:39:56;22.50;34.70
15543;DHT22;7873;52.230;12.856;2023-03-01T13:42:31;22.40;34.90
15543;DHT22;7873;52.230;12.856;2023-03-01T13:45:00;22.50;35.00
15543;DHT22;7873;52.230;12.856;2023-03-01T13:47:27;22.50;35.00
15543;DHT22;7873;52.230;12.856;2023-03-01T13:49:56;22.40;35.00
15543;DHT22;7873;52.230;12.856;2023-03-01T13:52:32;22.40;35.10
15543;DHT22;7873;52.230;12.856;2023-03-01T13:55:06;22.40;35.10
15543;DHT22;7873;52.230;12.856;2023-03-01T13:57:49;22.40;35.20
15543;DHT22;7873;52.230;12.856;2023-03-01T14:00:33;22.40;35.20
15543;DHT22;7873;52.230;12.856;2023-03-01T14:03:03;22.50;35.40
15543;DHT22;7873;52.230;12.856;2023-03-01T14:05:33;22.50;35.40
15543;DHT22;7873;52.230;12.856;2023-03-01T14:08:01;22.50;35.40
15543;DHT22;7873;52.230;12.856;2023-03-01T14:10:29;22.50;35.50
15543;DHT22;7873;52.230;12.856;2023-03-01T14:13:05;22.50;35.50
15543;DHT22;7873;52.230;12.856;2023-03-01T14:15:45;22.50;35.50
15543;DHT22;7873;52.230;12.856;2023-03-01T14:18:21;22.50;35.50
15543;DHT22;7873;52.230;12.856;2023-03-01T14:20:52;22.50;35.50
15543;DHT22;7873;52.230;12.856;2023-03-01T14:23:19;22.50;35.60
15543;DHT22;7873;52.230;12.856;2023-03-01T14:25:47;22.50;35.50
15543;DHT22;7873;52.230;12.856;2023-03-01T14:28:16;22.50;35.60
15543;DHT22;7873;52.230;12.856;2023-03-01T14:30:45;22.60;35.70
15543;DHT22;7873;52.230;12.856;2023-03-01T14:33:18;22.60;35.60
15543;DHT22;7873;52.230;12.856;2023-03-01T14:35:58;22.60;35.70
15543;DHT22;7873;52.230;12.856;2023-03-01T14:38:29;22.60;35.70
15543;DHT22;7873;52.230;12.856;2023-03-01T14:41:00;22.60;35.70
15543;DHT22;7873;52.230;12.856;2023-03-01T14:43:29;22.60;35.70
15543;DHT22;7873;52.230;12.856;2023-03-01T14:45:57;22.60;35.70
15543;DHT22;7873;52.230;12.856;2023-03-01T14:48:24;22.70;35.80
15543;DHT22;7873;52.230;12.856;2023-03-01T14:50:52;22.70;35.80
15543;DHT22;7873;52.230;12.856;2023-03-01T14:53:21;22.70;35.70
15543;DHT22;7873;52.230;12.856;2023-03-01T14:55:50;22.70;35.80
15543;DHT22;7873;52.230;12.856;2023-03-01T14:58:20;22.80;35.90
15543;DHT22;7873;52.230;12.856;2023-03-01T15:00:49;22.80;35.70
15543;DHT22;7873;52.230;12.856;2023-03-01T15:03:20;22.80;35.70
15543;DHT22;7873;52.230;12.856;2023-03-01T15:05:51;22.90;35.60
15543;DHT22;7873;52.230;12.856;2023-03-01T15:08:20;22.90;35.60
15543;DHT22;7873;52.230;12.856;2023-03-01T15:10:56;23.00;35.50
15543;DHT22;7873;52.230;12.856;2023-03-01T15:13:26;23.00;35.50
15543;DHT22;7873;52.230;12.856;2023-03-01T15:16:00;23.00;35.40
15543;DHT22;7873;52.230;12.856;2023-03-01T15:18:31;23.00;35.40
15543;DHT22;7873;52.230;12.856;2023-03-01T15:21:05;22.80;34.70
15543;DHT22;7873;52.230;12.856;2023-03-01T15:23:34;22.40;31.20
15543;DHT22;7873;52.230;12.856;2023-03-01T15:26:03;22.00;28.90
15543;DHT22;7873;52.230;12.856;2023-03-01T15:28:31;21.90;29.70
15543;DHT22;7873;52.230;12.856;2023-03-01T15:31:02;21.40;25.80
15543;DHT22;7873;52.230;12.856;2023-03-01T15:33:34;20.90;24.80
15543;DHT22;7873;52.230;12.856;2023-03-01T15:36:04;20.50;25.60
15543;DHT22;7873;52.230;12.856;2023-03-01T15:38:59;20.10;25.20
15543;DHT22;7873;52.230;12.856;2023-03-01T15:41:27;20.00;25.20
15543;DHT22;7873;52.230;12.856;2023-03-01T15:43:56;19.80;25.40
15543;DHT22;7873;52.230;12.856;2023-03-01T15:46:27;19.50;26.50
15543;DHT22;7873;52.230;12.856;2023-03-01T15:48:57;19.00;26.60
15543;DHT22;7873;52.230;12.856;2023-03-01T15:51:30;18.50;27.60
15543;DHT22;7873;52.230;12.856;2023-03-01T15:54:04;18.30;27.20
15543;DHT22;7873;52.230;12.856;2023-03-01T15:56:33;18.30;27.80
15543;DHT22;7873;52.230;12.856;2023-03-01T15:59:00;18.60;28.30
15543;DHT22;7873;52.230;12.856;2023-03-01T16:01:28;18.40;27.60
15543;DHT22;7873;52.230;12.856;2023-03-01T16:03:55;18.50;28.00